Presidente Janio Quadros, Brazil
Current Conditions -  °F | °C
As of 1:00 PM on Wednesday 26 Nov 2014 (Local Time) from SBQV Reporting Station
Scattered Clouds Scattered Clouds  
Wind Chill: 82°   Ceiling: Unl
Heat Index: 83°   Visibility: 6mi
Dew Point: 63°   Wind: 8mph
Humidity: 51%   Direction: 50°NE
Pressure: 30.03"   Gusts: NA
Location:  14.69°S, 41.68°W
Report Text: SBQV 261600Z 05007KT 9999 SCT020 28/17 Q1017
Loading
Personal Weather Stations






























Interactive Weather Map New forecast layout! Learn more

10-Day Weather Forecast

Advertisements
Track Severe Weather on mobile